• Join FlightAware (Why Join?)
  • Login
  • US Flag 
06:35PM EST


 

Airport Tracker/Info


-or-


 

Live Flight TrackerFlight Track Log ✈ CPT8773 ✈ 29-Jul-2013 ✈ KCPR - KCOD

Flight Track Log - Related Links

Times and Time Zones

All times are in EDT time to prevent confusion due to time zone crossing. See the CPT8773 flight status page for this flight to view local times or setup timezone preferences in your user account.

Time Position Orientation Groundspeed Altitude Reporting Facility
EDT Latitude Longitude Course Direction KTS MPH feet Rate Location/Type
08:58AM 42.9694 -106.5253 337° Northwest 121 139 7,600  Level Salt Lake Center
08:59AM 43.0042 -106.5453 337° Northwest 120 138 8,200 540 Climbing Salt Lake Center
09:00AM 43.0342 -106.5628 337° Northwest 121 139 8,800 540 Climbing Salt Lake Center
09:01AM 43.0644 -106.5800 337° Northwest 122 140 9,300 540 Climbing Salt Lake Center
09:02AM 43.0986 -106.5986 338° Northwest 121 139 9,900 540 Climbing Denver Center
09:03AM 43.1253 -106.6167 334° Northwest 116 133 10,400 480 Climbing Denver Center
09:04AM 43.1550 -106.6336 337° Northwest 119 137 10,900 540 Climbing Denver Center
09:05AM 43.1894 -106.6542 336° Northwest 121 139 11,500 480 Climbing Denver Center
09:06AM 43.2169 -106.6700 337° Northwest 116 133 11,900 240 Climbing Denver Center
09:07AM 43.2486 -106.6864 339° North 122 140 12,000  Climbing Denver Center
09:08AM 43.2911 -106.7092 339° North 141 162 12,000  Level Denver Center
09:09AM 43.3275 -106.7297 338° Northwest 148 170 12,000  Level Denver Center
09:10AM 43.3481 -106.7608 312° West 141 162 12,000  Level Denver Center
09:11AM 43.3728 -106.8178 301° West 137 158 12,000  Level Denver Center
09:12AM 43.3928 -106.8586 304° West 135 155 12,000  Level Denver Center
09:13AM 43.4158 -106.9011 307° West 136 157 12,000  Level Denver Center
09:14AM 43.4378 -106.9428 306° West 136 157 12,000  Level Denver Center
09:15AM 43.4594 -106.9819 307° West 132 152 12,000  Level Denver Center
09:16AM 43.4817 -107.0247 306° West 136 157 12,000  Level Denver Center
09:17AM 43.5019 -107.0664 304° West 133 153 12,000  Level Denver Center
09:18AM 43.5272 -107.1150 306° West 130 150 12,000  Level Denver Center
09:19AM 43.5492 -107.1542 308° West 129 148 12,000  Level Denver Center
09:20AM 43.5706 -107.1956 306° West 132 152 12,000  Level Denver Center
09:21AM 43.5856 -107.2292 302° West 129 148 12,000  Level Salt Lake Center
09:22AM 43.6106 -107.2797 304° West 132 152 12,000  Level Salt Lake Center
09:23AM 43.6331 -107.3219 306° West 135 155 12,000  Level Salt Lake Center
09:24AM 43.6553 -107.3644 306° West 136 157 12,000  Level Salt Lake Center
09:25AM 43.6783 -107.4081 306° West 139 160 12,000  Level Salt Lake Center
09:26AM 43.6994 -107.4483 306° West 135 155 12,000  Level Salt Lake Center
09:27AM 43.7219 -107.4914 306° West 135 155 12,000  Level Salt Lake Center
09:28AM 43.7447 -107.5339 307° West 136 157 12,000  Level Salt Lake Center
09:29AM 43.7678 -107.5772 306° West 138 159 12,000  Level Salt Lake Center
09:30AM 43.7889 -107.6203 304° West 137 158 12,000  Level Salt Lake Center
09:31AM 43.8108 -107.6631 305° West 137 158 12,000  Level Salt Lake Center
09:32AM 43.8342 -107.7056 307° West 138 159 12,000  Level Salt Lake Center
09:33AM 43.8567 -107.7483 306° West 138 159 12,000  Level Salt Lake Center
09:34AM 43.8822 -107.7983 305° West 136 157 12,000  Level Salt Lake Center
09:35AM 43.9042 -107.8400 306° West 135 155 12,000  Level Salt Lake Center
09:36AM 43.9258 -107.8819 306° West 134 154 12,000  Level Salt Lake Center
09:37AM 43.9467 -107.9244 304° West 134 154 12,000  Level Salt Lake Center
09:38AM 43.9692 -107.9664 307° West 134 154 12,000 -120 Level Salt Lake Center
09:39AM 43.9936 -108.0053 311° West 135 155 11,800 -360 Descending Salt Lake Center
09:40AM 44.0175 -108.0481 308° West 136 157 11,300 -420 Descending Salt Lake Center
09:41AM 44.0414 -108.0925 307° West 139 160 11,000 -360 Descending Salt Lake Center
09:42AM 44.0644 -108.1383 305° West 142 163 10,600 -480 Descending Salt Lake Center
09:43AM 44.0886 -108.1842 306° West 144 166 10,100 -300 Descending Salt Lake Center
09:44AM 44.1186 -108.2394 307° West 147 169 10,000 -60 Descending Salt Lake Center
09:45AM 44.1422 -108.2878 304° West 149 171 10,000  Level Salt Lake Center
09:47AM 44.1672 -108.3331 308° West 149 171 10,000  Level Salt Lake Center
09:48AM 44.1914 -108.3786 307° West 148 170 10,000  Level Salt Lake Center
09:49AM 44.2158 -108.4239 307° West 147 169 10,000  Level Salt Lake Center
09:50AM 44.2394 -108.4689 306° West 146 168 10,000  Level Salt Lake Center
09:51AM 44.2619 -108.5131 305° West 144 166 10,000  Level Salt Lake Center
09:52AM 44.2853 -108.5550 308° West 141 162 10,000  Level Salt Lake Center
09:53AM 44.3089 -108.5992 307° West 140 161 10,000  Level Salt Lake Center
09:54AM 44.3325 -108.6436 307° West 141 162 10,000  Level Salt Lake Center